Piso, Kentucky
Current Conditions -  °F | °C
As of 4:15 AM on Monday 22 Dec 2014 (Local Time) from KPBX Reporting Station
Overcast Overcast  
Wind Chill: 32°   Ceiling: 3900
Heat Index: 38°   Visibility: 10mi
Dew Point: 32°   Wind: 8mph
Humidity: 80%   Direction: 120°ESE
Pressure: 30.03"   Gusts: NA
Location:  37.5348°N, 82.513°W
Report Text: KPBX 220915Z AUTO 12007KT 10SM OVC039 03/00 A3003 RMK AO2 T00310000
Loading
Personal Weather Stations






























Interactive Weather Map New forecast layout! Learn more

10-Day Weather Forecast

Advertisements
Track Severe Weather on mobile